X  Sluiten METAR luchtvaart weer gegevens      EBBR Brussels Airport
Temperatuur
15°C Temperatuur
11°C Dauwpunt
77% Vochtigheid



Wind
3 KM/U
2 MPH
1 M/S
2 KTS



Kalm
Noord
Huidig weer

Helder Helder
Luchtdruk 1014.92 (hPa) - 29.97 (inHg)
Zicht 6.2 (mijl) - 10 (km)
Vliegveld
Vliegveld code EBBR

Locatie : Brussels Airport
Afstand: 14 (km)

Metar:
EBBR 150650Z VRB02KT CAVOK 15/11 Q1015 NOSIG

Tijd: 07-15-2020 08:50 CEST